sensor_id;sensor_type;location;lat;lon;timestamp;temperature;humidity
31661;DHT22;18267;52.234;7.444;2022-10-31T00:00:41;15.20;99.90
31661;DHT22;18267;52.234;7.444;2022-10-31T00:03:06;15.20;99.90
31661;DHT22;18267;52.234;7.444;2022-10-31T00:05:32;15.20;99.90
31661;DHT22;18267;52.234;7.444;2022-10-31T00:07:58;15.20;99.90
31661;DHT22;18267;52.234;7.444;2022-10-31T00:10:23;15.10;99.90
31661;DHT22;18267;52.234;7.444;2022-10-31T00:12:49;15.10;99.90
31661;DHT22;18267;52.234;7.444;2022-10-31T00:15:14;15.10;99.90
31661;DHT22;18267;52.234;7.444;2022-10-31T00:17:40;15.10;99.90
31661;DHT22;18267;52.234;7.444;2022-10-31T00:20:06;15.10;99.90
31661;DHT22;18267;52.234;7.444;2022-10-31T00:22:31;15.00;99.90
31661;DHT22;18267;52.234;7.444;2022-10-31T00:24:57;15.10;99.90
31661;DHT22;18267;52.234;7.444;2022-10-31T00:27:22;15.00;99.90
31661;DHT22;18267;52.234;7.444;2022-10-31T00:29:48;15.10;99.90
31661;DHT22;18267;52.234;7.444;2022-10-31T00:32:14;15.10;99.90
31661;DHT22;18267;52.234;7.444;2022-10-31T00:34:39;15.00;99.90
31661;DHT22;18267;52.234;7.444;2022-10-31T00:37:05;14.90;99.90
31661;DHT22;18267;52.234;7.444;2022-10-31T00:39:30;14.90;99.90
31661;DHT22;18267;52.234;7.444;2022-10-31T00:41:56;14.90;99.90
31661;DHT22;18267;52.234;7.444;2022-10-31T00:44:21;14.80;99.90
31661;DHT22;18267;52.234;7.444;2022-10-31T00:46:47;14.80;99.90
31661;DHT22;18267;52.234;7.444;2022-10-31T00:49:12;14.80;99.90
31661;DHT22;18267;52.234;7.444;2022-10-31T00:51:38;14.80;99.90
31661;DHT22;18267;52.234;7.444;2022-10-31T00:54:03;14.80;99.90
31661;DHT22;18267;52.234;7.444;2022-10-31T00:56:29;14.80;99.90
31661;DHT22;18267;52.234;7.444;2022-10-31T00:58:54;14.80;99.90
31661;DHT22;18267;52.234;7.444;2022-10-31T01:01:20;14.70;99.90
31661;DHT22;18267;52.234;7.444;2022-10-31T01:03:45;14.70;99.90
31661;DHT22;18267;52.234;7.444;2022-10-31T01:06:13;14.70;99.90
31661;DHT22;18267;52.234;7.444;2022-10-31T01:08:39;14.70;99.90
31661;DHT22;18267;52.234;7.444;2022-10-31T01:11:17;14.60;99.90
31661;DHT22;18267;52.234;7.444;2022-10-31T01:13:43;14.50;99.90
31661;DHT22;18267;52.234;7.444;2022-10-31T01:16:16;14.50;99.90
31661;DHT22;18267;52.234;7.444;2022-10-31T01:18:42;14.60;99.90
31661;DHT22;18267;52.234;7.444;2022-10-31T01:21:10;14.50;99.90
31661;DHT22;18267;52.234;7.444;2022-10-31T01:23:37;14.60;99.90
31661;DHT22;18267;52.234;7.444;2022-10-31T01:26:18;14.60;99.90
31661;DHT22;18267;52.234;7.444;2022-10-31T01:28:46;14.70;99.90
31661;DHT22;18267;52.234;7.444;2022-10-31T01:31:13;14.60;99.90
31661;DHT22;18267;52.234;7.444;2022-10-31T01:33:38;14.50;99.90
31661;DHT22;18267;52.234;7.444;2022-10-31T01:38:37;14.50;99.90
31661;DHT22;18267;52.234;7.444;2022-10-31T01:41:03;14.50;99.90
31661;DHT22;18267;52.234;7.444;2022-10-31T01:46:18;14.40;99.90
31661;DHT22;18267;52.234;7.444;2022-10-31T01:48:45;14.30;99.90
31661;DHT22;18267;52.234;7.444;2022-10-31T01:51:12;14.30;99.90
31661;DHT22;18267;52.234;7.444;2022-10-31T01:53:40;14.40;99.90
31661;DHT22;18267;52.234;7.444;2022-10-31T01:56:06;14.40;99.90
31661;DHT22;18267;52.234;7.444;2022-10-31T01:58:32;14.40;99.90
31661;DHT22;18267;52.234;7.444;2022-10-31T02:01:00;14.50;99.90
31661;DHT22;18267;52.234;7.444;2022-10-31T02:03:26;14.50;99.90
31661;DHT22;18267;52.234;7.444;2022-10-31T02:05:55;14.50;99.90
31661;DHT22;18267;52.234;7.444;2022-10-31T02:08:30;14.40;99.90
31661;DHT22;18267;52.234;7.444;2022-10-31T02:10:57;14.40;99.90
31661;DHT22;18267;52.234;7.444;2022-10-31T02:13:23;14.40;99.90
31661;DHT22;18267;52.234;7.444;2022-10-31T02:15:52;14.40;99.90
31661;DHT22;18267;52.234;7.444;2022-10-31T02:18:18;14.40;99.90
31661;DHT22;18267;52.234;7.444;2022-10-31T02:32:17;14.20;99.90
31661;DHT22;18267;52.234;7.444;2022-10-31T02:34:56;14.10;99.90
31661;DHT22;18267;52.234;7.444;2022-10-31T02:37:38;14.10;99.90
31661;DHT22;18267;52.234;7.444;2022-10-31T02:40:26;14.10;99.90
31661;DHT22;18267;52.234;7.444;2022-10-31T02:43:07;14.10;99.90
31661;DHT22;18267;52.234;7.444;2022-10-31T02:45:48;14.20;99.90
31661;DHT22;18267;52.234;7.444;2022-10-31T02:48:19;14.10;99.90
31661;DHT22;18267;52.234;7.444;2022-10-31T02:50:55;14.10;99.90
31661;DHT22;18267;52.234;7.444;2022-10-31T02:53:21;14.00;99.90
31661;DHT22;18267;52.234;7.444;2022-10-31T02:55:59;14.00;99.90
31661;DHT22;18267;52.234;7.444;2022-10-31T02:58:30;13.90;99.90
31661;DHT22;18267;52.234;7.444;2022-10-31T03:01:17;13.90;99.90
31661;DHT22;18267;52.234;7.444;2022-10-31T03:07:08;13.80;99.90
31661;DHT22;18267;52.234;7.444;2022-10-31T03:12:40;13.80;99.90
31661;DHT22;18267;52.234;7.444;2022-10-31T03:20:21;14.00;99.90
31661;DHT22;18267;52.234;7.444;2022-10-31T03:22:49;14.00;99.90
31661;DHT22;18267;52.234;7.444;2022-10-31T03:25:15;13.90;99.90
31661;DHT22;18267;52.234;7.444;2022-10-31T03:27:42;13.80;99.90
31661;DHT22;18267;52.234;7.444;2022-10-31T03:30:09;13.80;99.90
31661;DHT22;18267;52.234;7.444;2022-10-31T03:32:48;13.80;99.90
31661;DHT22;18267;52.234;7.444;2022-10-31T03:35:18;13.80;99.90
31661;DHT22;18267;52.234;7.444;2022-10-31T03:37:46;13.70;99.90
31661;DHT22;18267;52.234;7.444;2022-10-31T03:40:14;13.70;99.90
31661;DHT22;18267;52.234;7.444;2022-10-31T03:42:43;13.80;99.90
31661;DHT22;18267;52.234;7.444;2022-10-31T03:45:14;13.80;99.90
31661;DHT22;18267;52.234;7.444;2022-10-31T03:47:43;13.80;99.90
31661;DHT22;18267;52.234;7.444;2022-10-31T03:50:10;13.80;99.90
31661;DHT22;18267;52.234;7.444;2022-10-31T03:55:40;13.80;99.90
31661;DHT22;18267;52.234;7.444;2022-10-31T03:58:10;13.80;99.90
31661;DHT22;18267;52.234;7.444;2022-10-31T04:00:40;13.60;99.90
31661;DHT22;18267;52.234;7.444;2022-10-31T04:03:19;13.50;99.90
31661;DHT22;18267;52.234;7.444;2022-10-31T04:05:48;13.40;99.90
31661;DHT22;18267;52.234;7.444;2022-10-31T04:08:21;13.40;99.90
31661;DHT22;18267;52.234;7.444;2022-10-31T04:10:49;13.60;99.90
31661;DHT22;18267;52.234;7.444;2022-10-31T04:13:19;13.70;99.90
31661;DHT22;18267;52.234;7.444;2022-10-31T04:15:46;13.70;99.90
31661;DHT22;18267;52.234;7.444;2022-10-31T04:18:14;13.70;99.90
31661;DHT22;18267;52.234;7.444;2022-10-31T04:20:41;13.70;99.90
31661;DHT22;18267;52.234;7.444;2022-10-31T04:23:22;13.70;99.90
31661;DHT22;18267;52.234;7.444;2022-10-31T04:25:48;13.70;99.90
31661;DHT22;18267;52.234;7.444;2022-10-31T04:28:13;13.70;99.90
31661;DHT22;18267;52.234;7.444;2022-10-31T04:30:39;13.80;99.90
31661;DHT22;18267;52.234;7.444;2022-10-31T04:33:05;13.80;99.90
31661;DHT22;18267;52.234;7.444;2022-10-31T04:35:30;13.70;99.90
31661;DHT22;18267;52.234;7.444;2022-10-31T04:37:56;13.70;99.90
31661;DHT22;18267;52.234;7.444;2022-10-31T04:40:21;13.70;99.90
31661;DHT22;18267;52.234;7.444;2022-10-31T04:42:47;13.80;99.90
31661;DHT22;18267;52.234;7.444;2022-10-31T04:45:12;13.80;99.90
31661;DHT22;18267;52.234;7.444;2022-10-31T04:47:38;13.80;99.90
31661;DHT22;18267;52.234;7.444;2022-10-31T04:50:04;13.70;99.90
31661;DHT22;18267;52.234;7.444;2022-10-31T04:52:29;13.60;99.90
31661;DHT22;18267;52.234;7.444;2022-10-31T04:54:55;13.50;99.90
31661;DHT22;18267;52.234;7.444;2022-10-31T04:57:20;13.30;99.90
31661;DHT22;18267;52.234;7.444;2022-10-31T04:59:46;13.30;99.90
31661;DHT22;18267;52.234;7.444;2022-10-31T05:02:11;13.30;99.90
31661;DHT22;18267;52.234;7.444;2022-10-31T05:04:37;13.20;99.90
31661;DHT22;18267;52.234;7.444;2022-10-31T05:07:02;13.40;99.90
31661;DHT22;18267;52.234;7.444;2022-10-31T05:09:28;13.30;99.90
31661;DHT22;18267;52.234;7.444;2022-10-31T05:11:53;13.30;99.90
31661;DHT22;18267;52.234;7.444;2022-10-31T05:14:19;13.20;99.90
31661;DHT22;18267;52.234;7.444;2022-10-31T05:16:44;13.20;99.90
31661;DHT22;18267;52.234;7.444;2022-10-31T05:19:10;13.20;99.90
31661;DHT22;18267;52.234;7.444;2022-10-31T05:21:35;13.20;99.90
31661;DHT22;18267;52.234;7.444;2022-10-31T05:24:01;13.10;99.90
31661;DHT22;18267;52.234;7.444;2022-10-31T05:26:26;13.10;99.90
31661;DHT22;18267;52.234;7.444;2022-10-31T05:28:52;13.10;99.90
31661;DHT22;18267;52.234;7.444;2022-10-31T05:31:18;13.00;99.90
31661;DHT22;18267;52.234;7.444;2022-10-31T05:33:43;13.00;99.90
31661;DHT22;18267;52.234;7.444;2022-10-31T05:36:09;13.00;99.90
31661;DHT22;18267;52.234;7.444;2022-10-31T05:38:34;13.00;99.90
31661;DHT22;18267;52.234;7.444;2022-10-31T05:41:00;13.00;99.90
31661;DHT22;18267;52.234;7.444;2022-10-31T05:43:26;13.00;99.90
31661;DHT22;18267;52.234;7.444;2022-10-31T05:45:56;13.00;99.90
31661;DHT22;18267;52.234;7.444;2022-10-31T05:48:22;13.00;99.90
31661;DHT22;18267;52.234;7.444;2022-10-31T05:50:48;12.90;99.90
31661;DHT22;18267;52.234;7.444;2022-10-31T05:53:14;12.80;99.90
31661;DHT22;18267;52.234;7.444;2022-10-31T05:55:40;12.70;99.90
31661;DHT22;18267;52.234;7.444;2022-10-31T05:58:06;12.60;99.90
31661;DHT22;18267;52.234;7.444;2022-10-31T06:00:32;12.70;99.90
31661;DHT22;18267;52.234;7.444;2022-10-31T06:03:02;12.80;99.90
31661;DHT22;18267;52.234;7.444;2022-10-31T06:05:29;12.70;99.90
31661;DHT22;18267;52.234;7.444;2022-10-31T06:07:55;12.70;99.90
31661;DHT22;18267;52.234;7.444;2022-10-31T06:10:21;12.80;99.90
31661;DHT22;18267;52.234;7.444;2022-10-31T06:12:47;12.90;99.90
31661;DHT22;18267;52.234;7.444;2022-10-31T06:15:13;12.90;99.90
31661;DHT22;18267;52.234;7.444;2022-10-31T06:17:38;13.00;99.90
31661;DHT22;18267;52.234;7.444;2022-10-31T06:20:05;13.10;99.90
31661;DHT22;18267;52.234;7.444;2022-10-31T06:22:30;13.00;99.90
31661;DHT22;18267;52.234;7.444;2022-10-31T06:24:56;13.10;99.90
31661;DHT22;18267;52.234;7.444;2022-10-31T06:27:22;13.10;99.90
31661;DHT22;18267;52.234;7.444;2022-10-31T06:29:47;13.10;99.90
31661;DHT22;18267;52.234;7.444;2022-10-31T06:32:13;12.90;99.90
31661;DHT22;18267;52.234;7.444;2022-10-31T06:34:40;12.80;99.90
31661;DHT22;18267;52.234;7.444;2022-10-31T06:37:06;12.80;99.90
31661;DHT22;18267;52.234;7.444;2022-10-31T06:39:32;12.60;99.90
31661;DHT22;18267;52.234;7.444;2022-10-31T06:41:58;12.70;99.90
31661;DHT22;18267;52.234;7.444;2022-10-31T06:44:24;12.60;99.90
31661;DHT22;18267;52.234;7.444;2022-10-31T06:46:49;12.60;99.90
31661;DHT22;18267;52.234;7.444;2022-10-31T06:49:15;12.70;99.90
31661;DHT22;18267;52.234;7.444;2022-10-31T06:51:40;12.80;99.90
31661;DHT22;18267;52.234;7.444;2022-10-31T06:54:06;12.90;99.90
31661;DHT22;18267;52.234;7.444;2022-10-31T06:56:31;13.00;99.90
31661;DHT22;18267;52.234;7.444;2022-10-31T06:58:57;13.10;99.90
31661;DHT22;18267;52.234;7.444;2022-10-31T07:01:23;13.10;99.90
31661;DHT22;18267;52.234;7.444;2022-10-31T07:03:48;13.00;99.90
31661;DHT22;18267;52.234;7.444;2022-10-31T07:06:14;13.10;99.90
31661;DHT22;18267;52.234;7.444;2022-10-31T07:08:39;13.10;99.90
31661;DHT22;18267;52.234;7.444;2022-10-31T07:11:05;13.20;99.90
31661;DHT22;18267;52.234;7.444;2022-10-31T07:13:31;13.20;99.90
31661;DHT22;18267;52.234;7.444;2022-10-31T07:16:00;13.20;99.90
31661;DHT22;18267;52.234;7.444;2022-10-31T07:18:27;13.30;99.90
31661;DHT22;18267;52.234;7.444;2022-10-31T07:20:53;13.30;99.90
31661;DHT22;18267;52.234;7.444;2022-10-31T07:23:19;13.40;99.90
31661;DHT22;18267;52.234;7.444;2022-10-31T07:25:45;13.40;99.90
31661;DHT22;18267;52.234;7.444;2022-10-31T07:28:10;13.40;99.90
31661;DHT22;18267;52.234;7.444;2022-10-31T07:30:37;13.50;99.90
31661;DHT22;18267;52.234;7.444;2022-10-31T07:33:03;13.60;99.90
31661;DHT22;18267;52.234;7.444;2022-10-31T07:35:29;13.60;99.90
31661;DHT22;18267;52.234;7.444;2022-10-31T07:37:56;13.60;99.90
31661;DHT22;18267;52.234;7.444;2022-10-31T07:40:23;13.60;99.90
31661;DHT22;18267;52.234;7.444;2022-10-31T07:42:51;13.70;99.90
31661;DHT22;18267;52.234;7.444;2022-10-31T07:45:18;13.80;99.90
31661;DHT22;18267;52.234;7.444;2022-10-31T07:47:49;13.80;99.90
31661;DHT22;18267;52.234;7.444;2022-10-31T07:50:17;13.80;99.90
31661;DHT22;18267;52.234;7.444;2022-10-31T07:52:43;13.80;99.90
31661;DHT22;18267;52.234;7.444;2022-10-31T07:55:09;13.80;99.90
31661;DHT22;18267;52.234;7.444;2022-10-31T07:57:36;13.80;99.90
31661;DHT22;18267;52.234;7.444;2022-10-31T08:00:06;13.80;99.90
31661;DHT22;18267;52.234;7.444;2022-10-31T08:02:32;13.80;99.90
31661;DHT22;18267;52.234;7.444;2022-10-31T08:04:57;13.80;99.90
31661;DHT22;18267;52.234;7.444;2022-10-31T08:07:25;13.90;99.90
31661;DHT22;18267;52.234;7.444;2022-10-31T08:09:51;14.00;99.90
31661;DHT22;18267;52.234;7.444;2022-10-31T08:12:16;14.00;99.90
31661;DHT22;18267;52.234;7.444;2022-10-31T08:14:42;14.00;99.90
31661;DHT22;18267;52.234;7.444;2022-10-31T08:17:07;14.10;99.90
31661;DHT22;18267;52.234;7.444;2022-10-31T08:19:33;14.10;99.90
31661;DHT22;18267;52.234;7.444;2022-10-31T08:21:58;14.20;99.90
31661;DHT22;18267;52.234;7.444;2022-10-31T08:24:24;14.20;99.90
31661;DHT22;18267;52.234;7.444;2022-10-31T08:26:50;14.20;99.90
31661;DHT22;18267;52.234;7.444;2022-10-31T08:29:15;14.30;99.90
31661;DHT22;18267;52.234;7.444;2022-10-31T08:31:42;14.30;99.90
31661;DHT22;18267;52.234;7.444;2022-10-31T08:34:07;14.30;99.90
31661;DHT22;18267;52.234;7.444;2022-10-31T08:36:33;14.20;99.90
31661;DHT22;18267;52.234;7.444;2022-10-31T08:38:59;14.30;99.90
31661;DHT22;18267;52.234;7.444;2022-10-31T08:41:25;14.30;99.90
31661;DHT22;18267;52.234;7.444;2022-10-31T08:43:50;14.40;99.90
31661;DHT22;18267;52.234;7.444;2022-10-31T08:46:16;14.40;99.90
31661;DHT22;18267;52.234;7.444;2022-10-31T08:48:42;14.40;99.90
31661;DHT22;18267;52.234;7.444;2022-10-31T08:51:08;14.40;99.90
31661;DHT22;18267;52.234;7.444;2022-10-31T08:53:34;14.50;99.90
31661;DHT22;18267;52.234;7.444;2022-10-31T08:56:00;14.50;99.90
31661;DHT22;18267;52.234;7.444;2022-10-31T08:58:25;14.60;99.90
31661;DHT22;18267;52.234;7.444;2022-10-31T09:00:52;14.70;99.90
31661;DHT22;18267;52.234;7.444;2022-10-31T09:03:22;14.90;99.90
31661;DHT22;18267;52.234;7.444;2022-10-31T09:05:48;14.90;99.90
31661;DHT22;18267;52.234;7.444;2022-10-31T09:08:14;15.00;99.90
31661;DHT22;18267;52.234;7.444;2022-10-31T09:10:39;15.20;99.90
31661;DHT22;18267;52.234;7.444;2022-10-31T09:13:23;15.30;99.90
31661;DHT22;18267;52.234;7.444;2022-10-31T09:15:49;15.30;99.90
31661;DHT22;18267;52.234;7.444;2022-10-31T09:18:18;15.40;99.90
31661;DHT22;18267;52.234;7.444;2022-10-31T09:20:45;15.50;99.90
31661;DHT22;18267;52.234;7.444;2022-10-31T09:23:21;15.60;99.90
31661;DHT22;18267;52.234;7.444;2022-10-31T09:25:49;15.60;99.90
31661;DHT22;18267;52.234;7.444;2022-10-31T09:28:17;15.60;99.90
31661;DHT22;18267;52.234;7.444;2022-10-31T09:30:47;15.70;99.90
31661;DHT22;18267;52.234;7.444;2022-10-31T09:33:13;15.70;99.90
31661;DHT22;18267;52.234;7.444;2022-10-31T09:35:39;15.80;99.90
31661;DHT22;18267;52.234;7.444;2022-10-31T09:38:08;15.80;99.90
31661;DHT22;18267;52.234;7.444;2022-10-31T09:40:40;15.80;99.90
31661;DHT22;18267;52.234;7.444;2022-10-31T09:45:43;15.90;99.90
31661;DHT22;18267;52.234;7.444;2022-10-31T09:51:28;16.10;99.90
31661;DHT22;18267;52.234;7.444;2022-10-31T09:54:15;16.20;99.90
31661;DHT22;18267;52.234;7.444;2022-10-31T09:56:43;16.10;99.90
31661;DHT22;18267;52.234;7.444;2022-10-31T09:59:23;16.10;99.90
31661;DHT22;18267;52.234;7.444;2022-10-31T10:02:04;16.10;99.90
31661;DHT22;18267;52.234;7.444;2022-10-31T10:07:16;16.20;99.90
31661;DHT22;18267;52.234;7.444;2022-10-31T10:09:44;16.20;99.90
31661;DHT22;18267;52.234;7.444;2022-10-31T10:15:01;16.20;99.90
31661;DHT22;18267;52.234;7.444;2022-10-31T10:20:04;16.30;99.90
31661;DHT22;18267;52.234;7.444;2022-10-31T10:23:03;16.40;99.90
31661;DHT22;18267;52.234;7.444;2022-10-31T10:31:18;16.50;99.90
31661;DHT22;18267;52.234;7.444;2022-10-31T10:36:38;16.60;99.90
31661;DHT22;18267;52.234;7.444;2022-10-31T10:39:18;16.60;99.90
31661;DHT22;18267;52.234;7.444;2022-10-31T10:41:48;16.50;99.90
31661;DHT22;18267;52.234;7.444;2022-10-31T10:44:33;16.60;99.90
31661;DHT22;18267;52.234;7.444;2022-10-31T10:47:17;16.60;99.90
31661;DHT22;18267;52.234;7.444;2022-10-31T10:50:12;16.70;99.90
31661;DHT22;18267;52.234;7.444;2022-10-31T10:52:48;16.70;99.90
31661;DHT22;18267;52.234;7.444;2022-10-31T10:58:02;16.60;99.90
31661;DHT22;18267;52.234;7.444;2022-10-31T11:03:01;16.60;99.90
31661;DHT22;18267;52.234;7.444;2022-10-31T11:07:58;16.60;99.90
31661;DHT22;18267;52.234;7.444;2022-10-31T11:10:24;16.60;99.90
31661;DHT22;18267;52.234;7.444;2022-10-31T11:13:14;16.70;99.90
31661;DHT22;18267;52.234;7.444;2022-10-31T11:15:58;16.60;99.90
31661;DHT22;18267;52.234;7.444;2022-10-31T11:18:26;16.60;99.90
31661;DHT22;18267;52.234;7.444;2022-10-31T11:20:58;16.70;99.90
31661;DHT22;18267;52.234;7.444;2022-10-31T11:23:26;16.80;99.90
31661;DHT22;18267;52.234;7.444;2022-10-31T11:26:18;16.90;99.90
31661;DHT22;18267;52.234;7.444;2022-10-31T11:28:58;17.00;99.90
31661;DHT22;18267;52.234;7.444;2022-10-31T11:31:25;17.00;99.90
31661;DHT22;18267;52.234;7.444;2022-10-31T11:33:59;16.90;99.90
31661;DHT22;18267;52.234;7.444;2022-10-31T11:36:28;16.90;99.90
31661;DHT22;18267;52.234;7.444;2022-10-31T11:38:55;17.00;99.90
31661;DHT22;18267;52.234;7.444;2022-10-31T11:41:32;17.00;99.90
31661;DHT22;18267;52.234;7.444;2022-10-31T11:44:01;16.90;99.90
31661;DHT22;18267;52.234;7.444;2022-10-31T11:46:45;16.90;99.90
31661;DHT22;18267;52.234;7.444;2022-10-31T11:49:28;16.90;99.90
31661;DHT22;18267;52.234;7.444;2022-10-31T11:51:56;17.00;99.90
31661;DHT22;18267;52.234;7.444;2022-10-31T11:54:29;17.10;99.90
31661;DHT22;18267;52.234;7.444;2022-10-31T11:56:56;17.10;99.90
31661;DHT22;18267;52.234;7.444;2022-10-31T11:59:26;17.20;99.90
31661;DHT22;18267;52.234;7.444;2022-10-31T12:01:54;17.20;99.90
31661;DHT22;18267;52.234;7.444;2022-10-31T12:06:57;17.30;99.90
31661;DHT22;18267;52.234;7.444;2022-10-31T12:09:25;17.30;99.90
31661;DHT22;18267;52.234;7.444;2022-10-31T12:26:27;17.20;99.90
31661;DHT22;18267;52.234;7.444;2022-10-31T12:45:01;17.60;99.90
31661;DHT22;18267;52.234;7.444;2022-10-31T12:58:26;17.70;99.90
31661;DHT22;18267;52.234;7.444;2022-10-31T13:01:10;17.70;99.90
31661;DHT22;18267;52.234;7.444;2022-10-31T13:03:55;17.60;99.90
31661;DHT22;18267;52.234;7.444;2022-10-31T13:06:29;17.60;99.90
31661;DHT22;18267;52.234;7.444;2022-10-31T13:08:59;17.60;99.90
31661;DHT22;18267;52.234;7.444;2022-10-31T13:11:37;17.50;99.90
31661;DHT22;18267;52.234;7.444;2022-10-31T13:16:55;17.50;99.90
31661;DHT22;18267;52.234;7.444;2022-10-31T13:19:33;17.60;99.90
31661;DHT22;18267;52.234;7.444;2022-10-31T13:24:39;17.50;99.90
31661;DHT22;18267;52.234;7.444;2022-10-31T13:28:09;17.40;99.90
31661;DHT22;18267;52.234;7.444;2022-10-31T13:30:18;17.40;99.90
31661;DHT22;18267;52.234;7.444;2022-10-31T13:33:13;17.30;99.90
31661;DHT22;18267;52.234;7.444;2022-10-31T13:35:54;17.40;99.90
31661;DHT22;18267;52.234;7.444;2022-10-31T13:39:31;17.40;99.90
31661;DHT22;18267;52.234;7.444;2022-10-31T13:44:26;17.40;99.90
31661;DHT22;18267;52.234;7.444;2022-10-31T13:46:53;17.40;99.90
31661;DHT22;18267;52.234;7.444;2022-10-31T13:52:24;17.40;99.90
31661;DHT22;18267;52.234;7.444;2022-10-31T13:54:51;17.40;99.90
31661;DHT22;18267;52.234;7.444;2022-10-31T13:57:31;17.40;99.90
31661;DHT22;18267;52.234;7.444;2022-10-31T14:02:56;17.30;99.90
31661;DHT22;18267;52.234;7.444;2022-10-31T14:05:33;17.40;99.90
31661;DHT22;18267;52.234;7.444;2022-10-31T14:08:02;17.30;99.90
31661;DHT22;18267;52.234;7.444;2022-10-31T14:10:38;17.40;99.90
31661;DHT22;18267;52.234;7.444;2022-10-31T14:15:51;17.50;99.90
31661;DHT22;18267;52.234;7.444;2022-10-31T14:18:29;17.40;99.90
31661;DHT22;18267;52.234;7.444;2022-10-31T14:20:56;17.50;99.90
31661;DHT22;18267;52.234;7.444;2022-10-31T14:28:49;17.40;99.90
31661;DHT22;18267;52.234;7.444;2022-10-31T14:31:45;17.40;99.90
31661;DHT22;18267;52.234;7.444;2022-10-31T14:34:33;17.30;99.90
31661;DHT22;18267;52.234;7.444;2022-10-31T14:51:13;17.30;99.90
31661;DHT22;18267;52.234;7.444;2022-10-31T14:53:48;17.40;99.90
31661;DHT22;18267;52.234;7.444;2022-10-31T14:56:29;17.40;99.90
31661;DHT22;18267;52.234;7.444;2022-10-31T14:59:02;17.30;99.90
31661;DHT22;18267;52.234;7.444;2022-10-31T15:01:33;17.30;99.90
31661;DHT22;18267;52.234;7.444;2022-10-31T15:04:13;17.20;99.90
31661;DHT22;18267;52.234;7.444;2022-10-31T15:06:44;17.20;99.90
31661;DHT22;18267;52.234;7.444;2022-10-31T15:09:26;17.20;99.90
31661;DHT22;18267;52.234;7.444;2022-10-31T15:11:51;17.20;99.90
31661;DHT22;18267;52.234;7.444;2022-10-31T15:14:29;17.10;99.90
31661;DHT22;18267;52.234;7.444;2022-10-31T15:16:58;17.10;99.90
31661;DHT22;18267;52.234;7.444;2022-10-31T15:19:28;17.00;99.90
31661;DHT22;18267;52.234;7.444;2022-10-31T15:21:56;16.90;99.90
31661;DHT22;18267;52.234;7.444;2022-10-31T15:24:26;17.00;99.90
31661;DHT22;18267;52.234;7.444;2022-10-31T15:26:53;17.00;99.90
31661;DHT22;18267;52.234;7.444;2022-10-31T15:29:22;17.00;99.90
31661;DHT22;18267;52.234;7.444;2022-10-31T15:32:00;17.00;99.90
31661;DHT22;18267;52.234;7.444;2022-10-31T15:34:34;16.90;99.90
31661;DHT22;18267;52.234;7.444;2022-10-31T15:37:02;16.90;99.90
31661;DHT22;18267;52.234;7.444;2022-10-31T15:39:28;16.90;99.90
31661;DHT22;18267;52.234;7.444;2022-10-31T15:41:56;16.90;99.90
31661;DHT22;18267;52.234;7.444;2022-10-31T15:44:36;16.80;99.90
31661;DHT22;18267;52.234;7.444;2022-10-31T15:47:17;16.80;99.90
31661;DHT22;18267;52.234;7.444;2022-10-31T15:50:04;16.80;99.90
31661;DHT22;18267;52.234;7.444;2022-10-31T15:52:45;16.70;99.90
31661;DHT22;18267;52.234;7.444;2022-10-31T15:57:46;16.60;99.90
31661;DHT22;18267;52.234;7.444;2022-10-31T16:00:26;16.70;99.90
31661;DHT22;18267;52.234;7.444;2022-10-31T16:13:34;16.90;99.90
31661;DHT22;18267;52.234;7.444;2022-10-31T16:16:03;16.80;99.90
31661;DHT22;18267;52.234;7.444;2022-10-31T16:18:34;16.70;99.90
31661;DHT22;18267;52.234;7.444;2022-10-31T16:21:00;16.60;99.90
31661;DHT22;18267;52.234;7.444;2022-10-31T16:23:26;16.50;99.90
31661;DHT22;18267;52.234;7.444;2022-10-31T16:25:53;16.50;99.90
31661;DHT22;18267;52.234;7.444;2022-10-31T16:28:21;16.60;99.90
31661;DHT22;18267;52.234;7.444;2022-10-31T16:30:48;16.60;99.90
31661;DHT22;18267;52.234;7.444;2022-10-31T16:33:32;16.60;99.90
31661;DHT22;18267;52.234;7.444;2022-10-31T16:35:59;16.70;99.90
31661;DHT22;18267;52.234;7.444;2022-10-31T16:38:26;16.60;99.90
31661;DHT22;18267;52.234;7.444;2022-10-31T16:40:52;16.60;99.90
31661;DHT22;18267;52.234;7.444;2022-10-31T16:43:19;16.60;99.90
31661;DHT22;18267;52.234;7.444;2022-10-31T16:45:51;16.50;99.90
31661;DHT22;18267;52.234;7.444;2022-10-31T16:48:19;16.50;99.90
31661;DHT22;18267;52.234;7.444;2022-10-31T16:50:47;16.40;99.90
31661;DHT22;18267;52.234;7.444;2022-10-31T16:53:13;16.40;99.90
31661;DHT22;18267;52.234;7.444;2022-10-31T16:55:48;16.50;99.90
31661;DHT22;18267;52.234;7.444;2022-10-31T16:58:21;16.40;99.90
31661;DHT22;18267;52.234;7.444;2022-10-31T17:00:48;16.40;99.90
31661;DHT22;18267;52.234;7.444;2022-10-31T17:03:13;16.40;99.90
31661;DHT22;18267;52.234;7.444;2022-10-31T17:05:39;16.40;99.90
31661;DHT22;18267;52.234;7.444;2022-10-31T17:08:05;16.40;99.90
31661;DHT22;18267;52.234;7.444;2022-10-31T17:10:30;16.50;99.90
31661;DHT22;18267;52.234;7.444;2022-10-31T17:12:56;16.50;99.90
31661;DHT22;18267;52.234;7.444;2022-10-31T17:15:26;16.50;99.90
31661;DHT22;18267;52.234;7.444;2022-10-31T17:17:53;16.40;99.90
31661;DHT22;18267;52.234;7.444;2022-10-31T17:20:23;16.50;99.90
31661;DHT22;18267;52.234;7.444;2022-10-31T17:22:49;16.60;99.90
31661;DHT22;18267;52.234;7.444;2022-10-31T17:25:17;16.60;99.90
31661;DHT22;18267;52.234;7.444;2022-10-31T17:27:43;16.60;99.90
31661;DHT22;18267;52.234;7.444;2022-10-31T17:30:11;16.70;99.90
31661;DHT22;18267;52.234;7.444;2022-10-31T17:32:37;16.60;99.90
31661;DHT22;18267;52.234;7.444;2022-10-31T17:35:03;16.50;99.90
31661;DHT22;18267;52.234;7.444;2022-10-31T17:37:28;16.60;99.90
31661;DHT22;18267;52.234;7.444;2022-10-31T17:39:54;16.60;99.90
31661;DHT22;18267;52.234;7.444;2022-10-31T17:42:20;16.60;99.90
31661;DHT22;18267;52.234;7.444;2022-10-31T17:44:46;16.60;99.90
31661;DHT22;18267;52.234;7.444;2022-10-31T17:47:11;16.60;99.90
31661;DHT22;18267;52.234;7.444;2022-10-31T17:49:37;16.70;99.90
31661;DHT22;18267;52.234;7.444;2022-10-31T17:52:03;16.60;99.90
31661;DHT22;18267;52.234;7.444;2022-10-31T17:54:29;16.50;99.90
31661;DHT22;18267;52.234;7.444;2022-10-31T17:56:54;16.50;99.90
31661;DHT22;18267;52.234;7.444;2022-10-31T17:59:20;16.50;99.90
31661;DHT22;18267;52.234;7.444;2022-10-31T18:01:45;16.50;99.90
31661;DHT22;18267;52.234;7.444;2022-10-31T18:04:11;16.50;99.90
31661;DHT22;18267;52.234;7.444;2022-10-31T18:06:36;16.50;99.90
31661;DHT22;18267;52.234;7.444;2022-10-31T18:09:03;16.60;99.90
31661;DHT22;18267;52.234;7.444;2022-10-31T18:11:30;16.60;99.90
31661;DHT22;18267;52.234;7.444;2022-10-31T18:13:56;16.60;99.90
31661;DHT22;18267;52.234;7.444;2022-10-31T18:16:23;16.50;99.90
31661;DHT22;18267;52.234;7.444;2022-10-31T18:18:54;16.50;99.90